createdAt,value
2019-04-25T00:02:39.149Z,3.17
2019-04-25T00:05:11.389Z,3.53
2019-04-25T00:07:42.477Z,2.87
2019-04-25T00:10:11.722Z,3.83
2019-04-25T00:12:43.209Z,3.10
2019-04-25T00:15:13.192Z,3.47
2019-04-25T00:17:44.436Z,3.27
2019-04-25T00:20:14.746Z,2.87
2019-04-25T00:22:53.402Z,3.30
2019-04-25T00:25:44.384Z,2.90
2019-04-25T00:28:12.520Z,2.67
2019-04-25T00:30:43.445Z,2.50
2019-04-25T00:33:12.387Z,3.43
2019-04-25T00:35:43.555Z,3.47
2019-04-25T00:38:12.252Z,3.23
2019-04-25T00:40:42.757Z,4.00
2019-04-25T00:43:12.065Z,3.27
2019-04-25T00:45:42.430Z,3.43
2019-04-25T00:48:12.219Z,3.57
2019-04-25T00:50:42.648Z,3.63
2019-04-25T00:53:11.896Z,4.47
2019-04-25T00:55:43.081Z,3.67
2019-04-25T00:58:18.689Z,3.60
2019-04-25T01:01:06.698Z,4.07
2019-04-25T01:03:36.236Z,4.20
2019-04-25T01:06:05.432Z,3.53
2019-04-25T01:08:34.392Z,3.03
2019-04-25T01:11:03.314Z,3.13
2019-04-25T01:13:32.314Z,3.83
2019-04-25T01:16:03.693Z,3.40
2019-04-25T01:18:33.603Z,3.10
2019-04-25T01:21:04.424Z,3.20
2019-04-25T01:23:33.691Z,4.13
2019-04-25T01:26:03.322Z,3.87
2019-04-25T01:28:33.851Z,3.03
2019-04-25T01:31:04.442Z,3.13
2019-04-25T01:33:33.523Z,3.70
2019-04-25T01:36:16.944Z,3.37
2019-04-25T01:38:53.385Z,2.93
2019-04-25T01:41:44.851Z,2.73
2019-04-25T01:44:19.746Z,2.90
2019-04-25T01:46:49.656Z,3.37
2019-04-25T01:49:18.854Z,3.13
2019-04-25T01:51:48.852Z,3.35
2019-04-25T01:54:18.053Z,3.87
2019-04-25T01:56:47.229Z,3.63
2019-04-25T01:59:16.144Z,3.50
2019-04-25T02:01:45.074Z,3.47
2019-04-25T02:04:14.135Z,3.20
2019-04-25T02:06:43.460Z,3.23
2019-04-25T02:09:13.946Z,3.40
2019-04-25T02:12:11.064Z,3.53
2019-04-25T02:14:40.108Z,3.00
2019-04-25T02:17:09.008Z,3.10
2019-04-25T02:19:37.879Z,3.60
2019-04-25T02:22:07.585Z,3.50
2019-04-25T02:24:36.642Z,3.50
2019-04-25T02:27:05.670Z,3.97
2019-04-25T02:29:34.752Z,4.53
2019-04-25T02:32:08.849Z,4.33
2019-04-25T02:34:35.140Z,3.80
2019-04-25T02:37:08.860Z,4.20
2019-04-25T02:39:37.361Z,4.27
2019-04-25T02:42:08.292Z,3.40
2019-04-25T02:44:39.885Z,3.60
2019-04-25T02:47:28.148Z,3.60
2019-04-25T02:50:25.321Z,3.20
2019-04-25T02:53:06.145Z,3.73
2019-04-25T02:55:47.022Z,3.87
2019-04-25T02:58:15.907Z,3.57
2019-04-25T03:00:55.115Z,4.33
2019-04-25T03:03:15.610Z,4.43
2019-04-25T03:05:47.194Z,4.77
2019-04-25T03:08:15.370Z,4.23
2019-04-25T03:10:44.517Z,4.50
2019-04-25T03:13:14.939Z,4.20
2019-04-25T03:15:44.341Z,5.00
2019-04-25T03:18:15.611Z,5.17
2019-04-25T03:20:50.813Z,5.80
2019-04-25T03:23:42.152Z,5.43
2019-04-25T03:26:09.448Z,5.77
2019-04-25T03:28:38.450Z,5.40
2019-04-25T03:31:14.070Z,4.83
2019-04-25T03:33:38.688Z,4.97
2019-04-25T03:36:36.109Z,5.57
2019-04-25T03:39:07.069Z,6.30
2019-04-25T03:41:36.133Z,5.33
2019-04-25T03:44:06.312Z,5.13
2019-04-25T03:46:35.333Z,5.63
2019-04-25T03:49:05.314Z,6.00
2019-04-25T03:51:34.892Z,5.50
2019-04-25T03:54:04.894Z,4.87
2019-04-25T03:56:34.571Z,5.13
2019-04-25T03:59:05.836Z,4.93
2019-04-25T04:01:34.322Z,6.17
2019-04-25T04:04:05.732Z,5.27
2019-04-25T04:06:34.406Z,6.37
2019-04-25T04:09:05.887Z,6.13
2019-04-25T04:11:35.646Z,6.70
2019-04-25T04:14:05.775Z,6.40
2019-04-25T04:17:01.833Z,6.07
2019-04-25T04:19:34.762Z,6.23
2019-04-25T04:22:13.687Z,6.77
2019-04-25T04:24:47.446Z,6.70
2019-04-25T04:27:18.059Z,7.03
2019-04-25T04:29:47.031Z,6.10
2019-04-25T04:32:16.328Z,6.30
2019-04-25T04:34:46.042Z,6.67
2019-04-25T04:37:16.186Z,6.47
2019-04-25T04:39:45.286Z,5.87
2019-04-25T04:42:14.937Z,5.57
2019-04-25T04:44:44.748Z,5.77
2019-04-25T04:47:15.050Z,5.47
2019-04-25T04:49:44.243Z,5.27
2019-04-25T04:52:14.720Z,5.43
2019-04-25T04:54:44.043Z,5.13
2019-04-25T04:57:23.209Z,4.27
2019-04-25T04:59:43.924Z,4.60
2019-04-25T05:02:31.214Z,3.83
2019-04-25T05:05:10.614Z,3.47
2019-04-25T05:07:43.966Z,3.53
2019-04-25T05:10:14.324Z,2.93
2019-04-25T05:12:43.847Z,3.40
2019-04-25T05:15:16.240Z,2.90
2019-04-25T05:17:44.136Z,3.37
2019-04-25T05:20:15.118Z,3.20
2019-04-25T05:22:44.550Z,3.00
2019-04-25T05:25:16.228Z,3.23
2019-04-25T05:27:57.813Z,3.03
2019-04-25T05:30:19.772Z,2.80
2019-04-25T05:32:48.730Z,2.77
2019-04-25T05:35:17.841Z,3.30
2019-04-25T05:37:46.764Z,2.97
2019-04-25T05:40:17.062Z,2.63
2019-04-25T05:42:51.008Z,3.17
2019-04-25T05:45:21.447Z,2.33
2019-04-25T05:47:50.420Z,2.97
2019-04-25T05:50:19.908Z,3.17
2019-04-25T05:52:48.734Z,3.87
2019-04-25T05:55:19.895Z,3.97
2019-04-25T05:57:50.277Z,3.10
2019-04-25T06:00:20.701Z,3.17
2019-04-25T06:02:53.286Z,3.60
2019-04-25T06:05:23.386Z,3.10
2019-04-25T06:07:54.324Z,2.80
2019-04-25T06:10:35.583Z,2.67
2019-04-25T06:13:29.733Z,2.80
2019-04-25T06:16:09.152Z,2.37
2019-04-25T06:18:49.869Z,2.97
2019-04-25T06:21:19.162Z,3.93
2019-04-25T06:24:11.072Z,2.80
2019-04-25T06:26:50.815Z,3.80
2019-04-25T06:29:20.483Z,3.70
2019-04-25T06:31:49.561Z,2.97
2019-04-25T06:34:19.869Z,2.47
2019-04-25T06:36:48.961Z,2.90
2019-04-25T06:39:17.908Z,2.77
2019-04-25T06:41:46.920Z,2.97
2019-04-25T06:44:32.970Z,2.83
2019-04-25T06:47:15.121Z,2.53
2019-04-25T06:49:44.054Z,3.37
2019-04-25T06:52:13.904Z,2.70
2019-04-25T06:54:43.689Z,2.80
2019-04-25T06:57:14.038Z,2.97
2019-04-25T06:59:43.740Z,3.00
2019-04-25T07:02:13.982Z,2.23
2019-04-25T07:04:43.533Z,2.50
2019-04-25T07:07:14.977Z,2.23
2019-04-25T07:09:44.172Z,3.30
2019-04-25T07:12:13.530Z,2.80
2019-04-25T07:14:44.004Z,1.90
2019-04-25T07:17:14.311Z,2.30
2019-04-25T07:19:44.104Z,2.20
2019-04-25T07:22:15.198Z,2.27
2019-04-25T07:24:44.190Z,1.73
2019-04-25T07:27:44.764Z,2.20
2019-04-25T07:30:51.479Z,1.57
2019-04-25T07:33:17.903Z,1.60
2019-04-25T07:35:46.940Z,1.37
2019-04-25T07:38:15.979Z,1.47
2019-04-25T07:40:44.939Z,1.40
2019-04-25T07:43:14.055Z,1.13
2019-04-25T07:45:43.496Z,1.97
2019-04-25T07:48:13.985Z,1.30
2019-04-25T07:50:43.810Z,1.40
2019-04-25T07:53:14.258Z,1.70
2019-04-25T07:55:43.445Z,1.20
2019-04-25T07:58:14.261Z,1.40
2019-04-25T08:00:43.927Z,1.00
2019-04-25T08:03:13.797Z,1.60
2019-04-25T08:05:44.029Z,1.30
2019-04-25T08:08:13.616Z,1.43
2019-04-25T08:11:03.997Z,1.40
2019-04-25T08:13:42.254Z,1.45
2019-04-25T08:16:14.635Z,1.70
2019-04-25T08:18:44.520Z,1.53
2019-04-25T08:21:15.259Z,1.50
2019-04-25T08:23:44.383Z,1.70
2019-04-25T08:26:14.302Z,1.87
2019-04-25T08:28:51.932Z,1.83
2019-04-25T08:31:14.045Z,1.67
2019-04-25T08:33:46.339Z,1.30
2019-04-25T08:36:14.255Z,1.50
2019-04-25T08:38:44.707Z,1.60
2019-04-25T08:41:14.133Z,1.70
2019-04-25T08:43:45.360Z,1.60
2019-04-25T08:46:14.270Z,1.80
2019-04-25T08:49:02.393Z,1.70
2019-04-25T08:51:34.921Z,1.43
2019-04-25T08:54:13.554Z,1.93
2019-04-25T08:56:43.961Z,1.53
2019-04-25T08:59:43.321Z,1.30
2019-04-25T09:02:26.362Z,1.20
2019-04-25T09:05:14.472Z,1.57
2019-04-25T09:07:45.339Z,1.43
2019-04-25T09:10:15.826Z,1.30
2019-04-25T09:12:45.426Z,1.40
2019-04-25T09:15:14.953Z,1.50
2019-04-25T09:17:46.983Z,2.17
2019-04-25T09:20:15.192Z,1.37
2019-04-25T09:22:44.618Z,1.60
2019-04-25T09:25:15.984Z,1.40
2019-04-25T09:27:45.807Z,1.80
2019-04-25T09:30:15.790Z,1.30
2019-04-25T09:32:45.733Z,1.63
2019-04-25T09:35:15.338Z,1.10
2019-04-25T09:37:45.964Z,1.40
2019-04-25T09:40:16.603Z,1.30
2019-04-25T09:42:47.698Z,1.40
2019-04-25T09:45:46.318Z,1.40
2019-04-25T09:48:26.678Z,1.50
2019-04-25T09:51:03.499Z,1.27
2019-04-25T09:53:38.827Z,1.33
2019-04-25T09:56:30.387Z,1.60
2019-04-25T09:59:10.954Z,1.30
2019-04-25T10:01:41.392Z,1.10
2019-04-25T10:04:10.396Z,1.17
2019-04-25T10:06:39.475Z,1.30
2019-04-25T10:09:10.165Z,1.10
2019-04-25T10:11:39.979Z,1.40
2019-04-25T10:14:38.938Z,1.50
2019-04-25T10:17:08.099Z,1.00
2019-04-25T10:19:37.736Z,1.10
2019-04-25T10:22:07.050Z,1.60
2019-04-25T10:24:37.386Z,1.67
2019-04-25T10:27:07.443Z,1.60
2019-04-25T10:29:44.930Z,1.37
2019-04-25T10:32:07.284Z,1.40
2019-04-25T10:34:36.229Z,1.33
2019-04-25T10:37:05.233Z,1.33
2019-04-25T10:39:34.454Z,1.07
2019-04-25T10:42:03.659Z,1.10
2019-04-25T10:44:33.848Z,1.20
2019-04-25T10:47:03.070Z,1.30
2019-04-25T10:49:32.031Z,1.32
2019-04-25T10:52:01.013Z,1.43
2019-04-25T10:54:29.969Z,1.33
2019-04-25T10:56:58.834Z,1.10
2019-04-25T10:59:27.796Z,1.00
2019-04-25T11:01:56.669Z,1.07
2019-04-25T11:04:34.325Z,0.90
2019-04-25T11:07:03.769Z,1.20
2019-04-25T11:09:34.248Z,0.70
2019-04-25T11:12:03.854Z,0.77
2019-04-25T11:14:34.239Z,0.70
2019-04-25T11:17:03.297Z,0.63
2019-04-25T11:19:33.870Z,0.50
2019-04-25T11:22:03.990Z,2.60
2019-04-25T11:24:34.282Z,0.93
2019-04-25T11:27:04.315Z,0.80
2019-04-25T11:29:34.179Z,0.80
2019-04-25T11:32:03.473Z,0.70
2019-04-25T11:34:32.469Z,1.20
2019-04-25T11:37:01.436Z,1.00
2019-04-25T11:39:53.149Z,0.63
2019-04-25T11:42:23.561Z,0.70
2019-04-25T11:44:54.132Z,0.70
2019-04-25T11:47:24.291Z,0.70
2019-04-25T11:49:54.625Z,0.60
2019-04-25T11:52:28.187Z,1.33
2019-04-25T11:54:55.777Z,0.90
2019-04-25T11:57:24.754Z,0.80
2019-04-25T11:59:54.587Z,0.53
2019-04-25T12:02:25.538Z,0.97
2019-04-25T12:04:55.275Z,0.80
2019-04-25T12:07:24.401Z,1.03
2019-04-25T12:09:54.521Z,6.20
2019-04-25T12:12:23.918Z,0.70
2019-04-25T12:14:54.369Z,0.87
2019-04-25T12:17:23.580Z,0.60
2019-04-25T12:19:53.945Z,0.83
2019-04-25T12:22:23.817Z,0.70
2019-04-25T12:24:54.689Z,1.00
2019-04-25T12:27:24.268Z,0.93
2019-04-25T12:29:53.305Z,0.57
2019-04-25T12:32:22.300Z,1.20
2019-04-25T12:34:51.676Z,0.80
2019-04-25T12:37:20.567Z,0.90
2019-04-25T12:39:49.561Z,0.50
2019-04-25T12:42:18.540Z,0.73
2019-04-25T12:45:06.326Z,0.60
2019-04-25T12:47:38.182Z,0.60
2019-04-25T12:50:07.524Z,0.50
2019-04-25T12:52:36.459Z,4.43
2019-04-25T12:55:06.402Z,2.93
2019-04-25T12:57:35.325Z,0.60
2019-04-25T13:00:05.881Z,0.47
2019-04-25T13:02:36.501Z,0.67
2019-04-25T13:05:06.994Z,0.73
2019-04-25T13:07:36.032Z,0.80
2019-04-25T13:10:05.878Z,1.10
2019-04-25T13:12:34.814Z,0.77
2019-04-25T13:15:04.243Z,0.30
2019-04-25T13:17:33.758Z,1.05
2019-04-25T13:20:04.050Z,0.80
2019-04-25T13:22:34.797Z,0.60
2019-04-25T13:25:05.622Z,0.97
2019-04-25T13:28:08.930Z,0.73
2019-04-25T13:31:12.405Z,0.50
2019-04-25T13:33:57.214Z,1.13
2019-04-25T13:36:26.271Z,0.73
2019-04-25T13:38:55.238Z,1.00
2019-04-25T13:41:24.254Z,0.80
2019-04-25T13:43:54.653Z,0.50
2019-04-25T13:46:26.101Z,0.60
2019-04-25T13:48:54.630Z,0.50
2019-04-25T13:51:24.619Z,0.70
2019-04-25T13:53:54.590Z,0.60
2019-04-25T13:56:25.924Z,0.63
2019-04-25T13:58:55.890Z,0.60
2019-04-25T14:01:25.855Z,0.60
2019-04-25T14:03:54.859Z,1.10
2019-04-25T14:06:23.997Z,0.60
2019-04-25T14:08:53.424Z,0.73
2019-04-25T14:11:24.400Z,0.80
2019-04-25T14:13:53.421Z,0.97
2019-04-25T14:16:41.412Z,0.77
2019-04-25T14:19:33.575Z,1.10
2019-04-25T14:22:04.647Z,0.67
2019-04-25T14:24:35.689Z,1.43
2019-04-25T14:27:04.542Z,1.00
2019-04-25T14:29:33.439Z,1.00
2019-04-25T14:32:03.318Z,0.80
2019-04-25T14:34:33.721Z,0.90
2019-04-25T14:37:02.584Z,1.77
2019-04-25T14:39:31.522Z,1.80
2019-04-25T14:42:00.346Z,1.20
2019-04-25T14:44:29.311Z,1.27
2019-04-25T14:46:58.229Z,0.80
2019-04-25T14:49:27.054Z,0.82
2019-04-25T14:51:56.067Z,0.70
2019-04-25T14:54:30.838Z,3.10
2019-04-25T14:57:24.303Z,1.10
2019-04-25T14:59:53.474Z,1.42
2019-04-25T15:02:23.924Z,1.00
2019-04-25T15:04:52.883Z,1.00
2019-04-25T15:07:23.301Z,0.98
2019-04-25T15:09:52.809Z,0.80
2019-04-25T15:12:22.477Z,0.87
2019-04-25T15:14:52.766Z,0.70
2019-04-25T15:17:23.569Z,1.60
2019-04-25T15:19:52.655Z,1.47
2019-04-25T15:22:22.116Z,1.12
2019-04-25T15:24:50.943Z,1.30
2019-04-25T15:27:20.117Z,1.45
2019-04-25T15:29:49.320Z,1.20
2019-04-25T15:32:21.569Z,1.27
2019-04-25T15:34:55.016Z,1.55
2019-04-25T15:37:48.072Z,0.80
2019-04-25T15:40:41.131Z,1.45
2019-04-25T15:43:26.334Z,2.52
2019-04-25T15:46:10.598Z,2.17
2019-04-25T15:48:39.921Z,5.77
2019-04-25T15:51:08.864Z,2.03
2019-04-25T15:53:38.121Z,1.57
2019-04-25T15:56:07.161Z,1.10
2019-04-25T15:58:37.336Z,1.05
2019-04-25T16:01:07.068Z,1.00
2019-04-25T16:03:36.090Z,1.57
2019-04-25T16:06:05.337Z,1.20
2019-04-25T16:08:35.127Z,0.90
2019-04-25T16:11:04.324Z,1.15
2019-04-25T16:13:34.345Z,1.10
2019-04-25T16:16:04.157Z,1.50
2019-04-25T16:18:33.223Z,2.30
2019-04-25T16:21:02.222Z,1.20
2019-04-25T16:23:32.136Z,2.25
2019-04-25T16:26:01.209Z,1.40
2019-04-25T16:28:30.191Z,1.10
2019-04-25T16:30:59.001Z,1.62
2019-04-25T16:33:29.013Z,1.50
2019-04-25T16:35:58.075Z,2.08
2019-04-25T16:38:27.169Z,1.92
2019-04-25T16:40:57.952Z,1.82
2019-04-25T16:43:29.632Z,1.02
2019-04-25T16:45:58.763Z,0.70
2019-04-25T16:48:27.811Z,1.03
2019-04-25T16:50:56.836Z,0.87
2019-04-25T16:53:25.845Z,0.90
2019-04-25T16:55:54.839Z,0.73
2019-04-25T16:58:23.745Z,0.70
2019-04-25T17:01:05.073Z,0.67
2019-04-25T17:03:35.296Z,0.43
2019-04-25T17:06:05.249Z,0.82
2019-04-25T17:08:35.388Z,0.93
2019-04-25T17:11:04.778Z,1.33
2019-04-25T17:13:35.906Z,0.87
2019-04-25T17:16:22.648Z,1.00
2019-04-25T17:19:04.523Z,1.10
2019-04-25T17:21:33.547Z,0.70
2019-04-25T17:24:02.672Z,1.33
2019-04-25T17:26:32.674Z,1.10
2019-04-25T17:29:04.152Z,1.13
2019-04-25T17:31:54.998Z,0.87
2019-04-25T17:34:31.847Z,0.60
2019-04-25T17:37:19.787Z,1.00
2019-04-25T17:39:52.000Z,0.50
2019-04-25T17:42:21.132Z,0.90
2019-04-25T17:44:50.046Z,0.70
2019-04-25T17:47:19.018Z,0.70
2019-04-25T17:49:47.891Z,0.73
2019-04-25T17:52:16.761Z,1.03
2019-04-25T17:54:46.324Z,0.80
2019-04-25T17:57:15.213Z,0.65
2019-04-25T17:59:44.188Z,0.80
2019-04-25T18:02:13.420Z,0.93
2019-04-25T18:04:42.586Z,0.53
2019-04-25T18:07:12.528Z,0.80
2019-04-25T18:09:41.468Z,0.73
2019-04-25T18:12:10.688Z,0.60
2019-04-25T18:14:40.520Z,0.70
2019-04-25T18:17:09.533Z,1.00
2019-04-25T18:19:46.188Z,0.90
2019-04-25T18:22:28.976Z,0.50
2019-04-25T18:25:13.255Z,0.63
2019-04-25T18:28:01.404Z,0.50
2019-04-25T18:30:31.205Z,0.63
2019-04-25T18:33:10.559Z,0.50
2019-04-25T18:35:41.679Z,0.40
2019-04-25T18:38:29.193Z,0.50
2019-04-25T18:41:11.922Z,0.50
2019-04-25T18:43:44.812Z,0.47
2019-04-25T18:46:21.801Z,0.53
2019-04-25T18:48:51.150Z,0.43
2019-04-25T18:51:20.188Z,0.40
2019-04-25T18:54:07.293Z,0.50
2019-04-25T18:56:41.105Z,0.70
2019-04-25T18:59:48.222Z,0.37
2019-04-25T19:02:35.276Z,0.40
2019-04-25T19:05:26.420Z,0.80
2019-04-25T19:07:55.686Z,0.27
2019-04-25T19:10:24.956Z,0.47
2019-04-25T19:12:53.965Z,0.47
2019-04-25T19:15:22.943Z,1.00
2019-04-25T19:17:52.193Z,0.40
2019-04-25T19:20:21.407Z,0.50
2019-04-25T19:22:50.620Z,0.37
2019-04-25T19:25:19.757Z,0.40
2019-04-25T19:27:48.927Z,0.40
2019-04-25T19:30:19.861Z,0.40
2019-04-25T19:32:49.182Z,0.37
2019-04-25T19:35:18.372Z,0.23
2019-04-25T19:37:48.467Z,0.30
2019-04-25T19:40:30.222Z,0.50
2019-04-25T19:43:05.609Z,0.23
2019-04-25T19:45:34.587Z,0.30
2019-04-25T19:48:03.547Z,0.10
2019-04-25T19:50:32.630Z,0.30
2019-04-25T19:53:01.622Z,0.30
2019-04-25T19:55:30.479Z,0.50
2019-04-25T19:57:59.577Z,0.50
2019-04-25T20:00:28.583Z,0.50
2019-04-25T20:03:20.744Z,0.37
2019-04-25T20:05:58.354Z,0.60
2019-04-25T20:08:36.005Z,0.20
2019-04-25T20:11:17.793Z,0.60
2019-04-25T20:13:47.088Z,0.40
2019-04-25T20:16:16.008Z,0.50
2019-04-25T20:18:45.698Z,0.63
2019-04-25T20:21:15.209Z,0.37
2019-04-25T20:23:46.340Z,0.50
2019-04-25T20:26:15.531Z,0.93
2019-04-25T20:28:44.959Z,0.80
2019-04-25T20:31:14.686Z,0.70
2019-04-25T20:33:45.441Z,0.60
2019-04-25T20:36:17.813Z,1.03
2019-04-25T20:38:45.973Z,0.30
2019-04-25T20:41:16.002Z,1.00
2019-04-25T20:43:45.156Z,0.50
2019-04-25T20:46:14.229Z,0.47
2019-04-25T20:48:43.131Z,0.90
2019-04-25T20:51:12.181Z,1.20
2019-04-25T20:53:41.274Z,1.63
2019-04-25T20:56:10.171Z,0.57
2019-04-25T20:58:39.221Z,0.67
2019-04-25T21:01:08.210Z,0.60
2019-04-25T21:03:37.290Z,0.80
2019-04-25T21:06:16.142Z,1.00
2019-04-25T21:08:44.983Z,0.50
2019-04-25T21:11:13.977Z,0.50
2019-04-25T21:14:04.956Z,0.30
2019-04-25T21:17:08.026Z,0.40
2019-04-25T21:19:40.300Z,0.83
2019-04-25T21:22:09.732Z,0.40
2019-04-25T21:24:38.996Z,0.33
2019-04-25T21:27:07.877Z,0.50
2019-04-25T21:29:36.958Z,0.50
2019-04-25T21:32:06.208Z,0.50
2019-04-25T21:34:35.156Z,0.47
2019-04-25T21:37:04.408Z,0.50
2019-04-25T21:39:53.593Z,0.40
2019-04-25T21:42:27.306Z,0.30
2019-04-25T21:44:56.605Z,0.53
2019-04-25T21:47:27.192Z,11.70
2019-04-25T21:49:58.595Z,1.00
2019-04-25T21:52:27.945Z,1.10
2019-04-25T21:54:57.517Z,1.10
2019-04-25T21:57:27.669Z,0.63
2019-04-25T22:00:02.813Z,0.50
2019-04-25T22:02:27.968Z,1.30
2019-04-25T22:04:57.053Z,0.70
2019-04-25T22:07:29.094Z,0.60
2019-04-25T22:09:59.409Z,0.80
2019-04-25T22:12:28.481Z,0.60
2019-04-25T22:14:57.638Z,0.70
2019-04-25T22:17:26.694Z,0.77
2019-04-25T22:19:56.762Z,6.70
2019-04-25T22:22:26.735Z,18.77
2019-04-25T22:24:56.169Z,1.20
2019-04-25T22:27:30.559Z,1.30
2019-04-25T22:29:59.966Z,3.33
2019-04-25T22:32:57.145Z,7.50
2019-04-25T22:35:36.223Z,3.20
2019-04-25T22:38:06.311Z,1.80
2019-04-25T22:40:35.271Z,1.77
2019-04-25T22:43:05.925Z,1.63
2019-04-25T22:45:35.217Z,1.00
2019-04-25T22:48:04.696Z,0.98
2019-04-25T22:50:33.969Z,1.10
2019-04-25T22:53:02.853Z,1.20
2019-04-25T22:55:33.206Z,1.30
2019-04-25T22:58:02.777Z,1.30
2019-04-25T23:00:35.942Z,0.67
2019-04-25T23:03:14.268Z,0.87
2019-04-25T23:05:50.090Z,0.80
2019-04-25T23:08:19.699Z,0.95
2019-04-25T23:10:48.759Z,0.90
2019-04-25T23:13:17.564Z,0.90
2019-04-25T23:15:46.625Z,1.40
2019-04-25T23:18:15.761Z,2.00
2019-04-25T23:20:44.775Z,0.97
2019-04-25T23:23:13.949Z,2.87
2019-04-25T23:26:00.930Z,1.97
2019-04-25T23:28:33.260Z,3.07
2019-04-25T23:31:12.618Z,1.40
2019-04-25T23:33:41.593Z,1.20
2019-04-25T23:36:11.222Z,1.40
2019-04-25T23:38:40.368Z,1.20
2019-04-25T23:41:09.730Z,0.83
2019-04-25T23:43:38.689Z,1.00
2019-04-25T23:46:08.246Z,1.17
2019-04-25T23:48:37.468Z,0.90
2019-04-25T23:51:06.458Z,0.80
2019-04-25T23:53:36.487Z,1.00
2019-04-25T23:56:05.511Z,0.80
2019-04-25T23:58:34.408Z,0.83
